メインページ
METAR-TAF:

METAR-TAF

空港 :

ベリーズシティ, ベリーズ

フィリップス・S・W・ゴールドソン国際空港

緯度: 17-32N, 経度: 088-18W, 海抜: 5m

現時点の気象観測

当レポートは41分前の19:00(UTC)に作成
南/南東の風 6kt
気温 29°C
湿度 62%
気圧 1015 hPa
視程10km以上
高度2500ftの雲はほとんどない

METAR: MZBZ 251900Z 15006KT 9999 FEW025 29/21 A2999 Q1015 NOSIG

時間: 13:41 (19:41 UTC)

予報

当レポートは4時間41分前の15:00(UTC)に作成
予報は25日の 18時(UTC)から 26日の 18時(UTC)まで有効
の風 7kt
視程10km以上
高度2300ftの雲は散在している

TAF: MZBZ 251500Z 2518/2618 09007KT 9999 SCT023

4,000以上の空港の気象観測と天気予報(METAR報とTAF報)

利用可能な観測所は地図上に黄色い丸と赤い丸で示す。

丸の上にカーソルを重ねると観測所名を参照できる。

次にクリックすると気象観測と天気予報を参照できる。

マップの切り替え:黒色「×」印の緑ボタンをクリックして拡大、「-」印の緑ボタンをクリックして縮小、緑色の三角印をクリックして隣りの地図に切り替え


METAR-TAF: